sensor_id;sensor_type;location;lat;lon;timestamp;P1;P2;P0
55754;PMS5003;41674;52.290;-1.474;2023-01-26T00:00:23;10;9;
55754;PMS5003;41674;52.290;-1.474;2023-01-26T00:02:52;9;9;
55754;PMS5003;41674;52.290;-1.474;2023-01-26T00:05:21;9;7;
55754;PMS5003;41674;52.290;-1.474;2023-01-26T00:07:51;11;9;
55754;PMS5003;41674;52.290;-1.474;2023-01-26T00:10:21;9;7;
55754;PMS5003;41674;52.290;-1.474;2023-01-26T00:12:51;9;7;
55754;PMS5003;41674;52.290;-1.474;2023-01-26T00:15:20;9;8;
55754;PMS5003;41674;52.290;-1.474;2023-01-26T00:17:50;10;8;
55754;PMS5003;41674;52.290;-1.474;2023-01-26T00:20:20;12;9;
55754;PMS5003;41674;52.290;-1.474;2023-01-26T00:22:49;8;8;
55754;PMS5003;41674;52.290;-1.474;2023-01-26T00:25:19;7;7;
55754;PMS5003;41674;52.290;-1.474;2023-01-26T00:27:49;8;8;
55754;PMS5003;41674;52.290;-1.474;2023-01-26T00:30:19;10;8;
55754;PMS5003;41674;52.290;-1.474;2023-01-26T00:32:48;9;7;
55754;PMS5003;41674;52.290;-1.474;2023-01-26T00:35:18;12;9;
55754;PMS5003;41674;52.290;-1.474;2023-01-26T00:37:48;14;12;
55754;PMS5003;41674;52.290;-1.474;2023-01-26T00:40:17;20;15;
55754;PMS5003;41674;52.290;-1.474;2023-01-26T00:42:47;10;8;
55754;PMS5003;41674;52.290;-1.474;2023-01-26T00:45:16;13;12;
55754;PMS5003;41674;52.290;-1.474;2023-01-26T00:47:46;12;9;
55754;PMS5003;41674;52.290;-1.474;2023-01-26T00:50:15;14;12;
55754;PMS5003;41674;52.290;-1.474;2023-01-26T00:52:45;29;21;
55754;PMS5003;41674;52.290;-1.474;2023-01-26T00:55:14;27;21;
55754;PMS5003;41674;52.290;-1.474;2023-01-26T00:57:43;30;24;
55754;PMS5003;41674;52.290;-1.474;2023-01-26T01:00:13;37;29;
55754;PMS5003;41674;52.290;-1.474;2023-01-26T01:02:42;22;18;
55754;PMS5003;41674;52.290;-1.474;2023-01-26T01:05:12;10;9;
55754;PMS5003;41674;52.290;-1.474;2023-01-26T01:07:41;17;15;
55754;PMS5003;41674;52.290;-1.474;2023-01-26T01:10:11;8;8;
55754;PMS5003;41674;52.290;-1.474;2023-01-26T01:12:40;8;7;
55754;PMS5003;41674;52.290;-1.474;2023-01-26T01:15:10;8;6;
55754;PMS5003;41674;52.290;-1.474;2023-01-26T01:17:40;9;9;
55754;PMS5003;41674;52.290;-1.474;2023-01-26T01:20:10;13;11;
55754;PMS5003;41674;52.290;-1.474;2023-01-26T01:22:39;9;8;
55754;PMS5003;41674;52.290;-1.474;2023-01-26T01:25:08;36;27;
55754;PMS5003;41674;52.290;-1.474;2023-01-26T01:27:38;25;24;
55754;PMS5003;41674;52.290;-1.474;2023-01-26T01:30:07;38;30;
55754;PMS5003;41674;52.290;-1.474;2023-01-26T01:32:36;16;15;
55754;PMS5003;41674;52.290;-1.474;2023-01-26T01:35:06;30;23;
55754;PMS5003;41674;52.290;-1.474;2023-01-26T01:37:35;36;28;
55754;PMS5003;41674;52.290;-1.474;2023-01-26T01:40:05;30;24;
55754;PMS5003;41674;52.290;-1.474;2023-01-26T01:42:34;43;30;
55754;PMS5003;41674;52.290;-1.474;2023-01-26T01:47:33;32;25;
55754;PMS5003;41674;52.290;-1.474;2023-01-26T01:50:02;26;20;
55754;PMS5003;41674;52.290;-1.474;2023-01-26T01:52:31;26;23;
55754;PMS5003;41674;52.290;-1.474;2023-01-26T01:55:02;23;19;
55754;PMS5003;41674;52.290;-1.474;2023-01-26T01:57:30;19;19;
55754;PMS5003;41674;52.290;-1.474;2023-01-26T02:00:01;27;23;
55754;PMS5003;41674;52.290;-1.474;2023-01-26T02:02:29;24;19;
55754;PMS5003;41674;52.290;-1.474;2023-01-26T02:04:59;16;13;
55754;PMS5003;41674;52.290;-1.474;2023-01-26T02:07:28;14;12;
55754;PMS5003;41674;52.290;-1.474;2023-01-26T02:09:58;13;10;
55754;PMS5003;41674;52.290;-1.474;2023-01-26T02:12:28;16;12;
55754;PMS5003;41674;52.290;-1.474;2023-01-26T02:14:57;10;10;
55754;PMS5003;41674;52.290;-1.474;2023-01-26T02:17:27;12;8;
55754;PMS5003;41674;52.290;-1.474;2023-01-26T02:19:59;11;10;
55754;PMS5003;41674;52.290;-1.474;2023-01-26T02:22:27;8;8;
55754;PMS5003;41674;52.290;-1.474;2023-01-26T02:24:56;13;9;
55754;PMS5003;41674;52.290;-1.474;2023-01-26T02:27:25;11;9;
55754;PMS5003;41674;52.290;-1.474;2023-01-26T02:29:55;10;10;
55754;PMS5003;41674;52.290;-1.474;2023-01-26T02:32:25;11;9;
55754;PMS5003;41674;52.290;-1.474;2023-01-26T02:34:54;12;11;
55754;PMS5003;41674;52.290;-1.474;2023-01-26T02:37:24;11;10;
55754;PMS5003;41674;52.290;-1.474;2023-01-26T02:39:55;16;11;
55754;PMS5003;41674;52.290;-1.474;2023-01-26T02:42:23;10;9;
55754;PMS5003;41674;52.290;-1.474;2023-01-26T02:44:53;13;11;
55754;PMS5003;41674;52.290;-1.474;2023-01-26T02:47:22;13;11;
55754;PMS5003;41674;52.290;-1.474;2023-01-26T02:49:52;12;10;
55754;PMS5003;41674;52.290;-1.474;2023-01-26T02:52:22;8;7;
55754;PMS5003;41674;52.290;-1.474;2023-01-26T02:54:52;8;6;
55754;PMS5003;41674;52.290;-1.474;2023-01-26T02:57:21;7;5;
55754;PMS5003;41674;52.290;-1.474;2023-01-26T02:59:51;6;6;
55754;PMS5003;41674;52.290;-1.474;2023-01-26T03:02:21;8;8;
55754;PMS5003;41674;52.290;-1.474;2023-01-26T03:04:50;4;4;
55754;PMS5003;41674;52.290;-1.474;2023-01-26T03:07:20;5;5;
55754;PMS5003;41674;52.290;-1.474;2023-01-26T03:09:50;7;6;
55754;PMS5003;41674;52.290;-1.474;2023-01-26T03:12:20;6;6;
55754;PMS5003;41674;52.290;-1.474;2023-01-26T03:14:49;6;6;
55754;PMS5003;41674;52.290;-1.474;2023-01-26T03:17:19;7;5;
55754;PMS5003;41674;52.290;-1.474;2023-01-26T03:19:49;7;6;
55754;PMS5003;41674;52.290;-1.474;2023-01-26T03:22:19;5;5;
55754;PMS5003;41674;52.290;-1.474;2023-01-26T03:24:48;6;6;
55754;PMS5003;41674;52.290;-1.474;2023-01-26T03:27:18;5;5;
55754;PMS5003;41674;52.290;-1.474;2023-01-26T03:29:48;3;3;
55754;PMS5003;41674;52.290;-1.474;2023-01-26T03:32:18;7;4;
55754;PMS5003;41674;52.290;-1.474;2023-01-26T03:34:47;6;5;
55754;PMS5003;41674;52.290;-1.474;2023-01-26T03:37:17;8;5;
55754;PMS5003;41674;52.290;-1.474;2023-01-26T03:39:47;8;6;
55754;PMS5003;41674;52.290;-1.474;2023-01-26T03:42:17;5;5;
55754;PMS5003;41674;52.290;-1.474;2023-01-26T03:44:46;6;5;
55754;PMS5003;41674;52.290;-1.474;2023-01-26T03:47:16;6;5;
55754;PMS5003;41674;52.290;-1.474;2023-01-26T03:49:46;4;4;
55754;PMS5003;41674;52.290;-1.474;2023-01-26T03:52:16;8;8;
55754;PMS5003;41674;52.290;-1.474;2023-01-26T03:54:45;9;6;
55754;PMS5003;41674;52.290;-1.474;2023-01-26T03:57:15;4;4;
55754;PMS5003;41674;52.290;-1.474;2023-01-26T03:59:45;9;6;
55754;PMS5003;41674;52.290;-1.474;2023-01-26T04:02:15;8;6;
55754;PMS5003;41674;52.290;-1.474;2023-01-26T04:04:44;7;7;
55754;PMS5003;41674;52.290;-1.474;2023-01-26T04:07:14;9;6;
55754;PMS5003;41674;52.290;-1.474;2023-01-26T04:09:44;8;7;
55754;PMS5003;41674;52.290;-1.474;2023-01-26T04:12:13;5;5;
55754;PMS5003;41674;52.290;-1.474;2023-01-26T04:14:43;6;6;
55754;PMS5003;41674;52.290;-1.474;2023-01-26T04:17:13;5;5;
55754;PMS5003;41674;52.290;-1.474;2023-01-26T04:19:43;10;8;
55754;PMS5003;41674;52.290;-1.474;2023-01-26T04:22:13;8;5;
55754;PMS5003;41674;52.290;-1.474;2023-01-26T04:24:42;6;6;
55754;PMS5003;41674;52.290;-1.474;2023-01-26T04:27:12;6;6;
55754;PMS5003;41674;52.290;-1.474;2023-01-26T04:29:42;8;6;
55754;PMS5003;41674;52.290;-1.474;2023-01-26T04:32:12;5;5;
55754;PMS5003;41674;52.290;-1.474;2023-01-26T04:34:41;6;6;
55754;PMS5003;41674;52.290;-1.474;2023-01-26T04:37:11;8;6;
55754;PMS5003;41674;52.290;-1.474;2023-01-26T04:39:41;5;4;
55754;PMS5003;41674;52.290;-1.474;2023-01-26T04:42:10;7;6;
55754;PMS5003;41674;52.290;-1.474;2023-01-26T04:44:40;8;8;
55754;PMS5003;41674;52.290;-1.474;2023-01-26T04:47:10;7;7;
55754;PMS5003;41674;52.290;-1.474;2023-01-26T04:49:39;7;7;
55754;PMS5003;41674;52.290;-1.474;2023-01-26T04:52:09;5;5;
55754;PMS5003;41674;52.290;-1.474;2023-01-26T04:54:38;7;7;
55754;PMS5003;41674;52.290;-1.474;2023-01-26T04:57:08;7;7;
55754;PMS5003;41674;52.290;-1.474;2023-01-26T04:59:38;10;8;
55754;PMS5003;41674;52.290;-1.474;2023-01-26T05:02:07;10;8;
55754;PMS5003;41674;52.290;-1.474;2023-01-26T05:04:37;8;4;
55754;PMS5003;41674;52.290;-1.474;2023-01-26T05:07:07;9;7;
55754;PMS5003;41674;52.290;-1.474;2023-01-26T05:09:37;9;6;
55754;PMS5003;41674;52.290;-1.474;2023-01-26T05:12:06;5;5;
55754;PMS5003;41674;52.290;-1.474;2023-01-26T05:14:36;7;6;
55754;PMS5003;41674;52.290;-1.474;2023-01-26T05:17:05;9;8;
55754;PMS5003;41674;52.290;-1.474;2023-01-26T05:19:35;8;6;
55754;PMS5003;41674;52.290;-1.474;2023-01-26T05:22:05;5;5;
55754;PMS5003;41674;52.290;-1.474;2023-01-26T05:24:35;7;5;
55754;PMS5003;41674;52.290;-1.474;2023-01-26T05:27:04;10;7;
55754;PMS5003;41674;52.290;-1.474;2023-01-26T05:29:34;7;5;
55754;PMS5003;41674;52.290;-1.474;2023-01-26T05:32:04;9;6;
55754;PMS5003;41674;52.290;-1.474;2023-01-26T05:34:33;6;5;
55754;PMS5003;41674;52.290;-1.474;2023-01-26T05:37:03;6;6;
55754;PMS5003;41674;52.290;-1.474;2023-01-26T05:39:32;6;6;
55754;PMS5003;41674;52.290;-1.474;2023-01-26T05:42:02;6;5;
55754;PMS5003;41674;52.290;-1.474;2023-01-26T05:44:32;7;7;
55754;PMS5003;41674;52.290;-1.474;2023-01-26T05:47:01;6;4;
55754;PMS5003;41674;52.290;-1.474;2023-01-26T05:49:31;7;6;
55754;PMS5003;41674;52.290;-1.474;2023-01-26T05:52:01;8;7;
55754;PMS5003;41674;52.290;-1.474;2023-01-26T05:54:30;8;7;
55754;PMS5003;41674;52.290;-1.474;2023-01-26T05:57:00;6;5;
55754;PMS5003;41674;52.290;-1.474;2023-01-26T05:59:30;8;5;
55754;PMS5003;41674;52.290;-1.474;2023-01-26T06:01:59;9;9;
55754;PMS5003;41674;52.290;-1.474;2023-01-26T06:04:29;5;4;
55754;PMS5003;41674;52.290;-1.474;2023-01-26T06:06:59;8;8;
55754;PMS5003;41674;52.290;-1.474;2023-01-26T06:09:28;9;8;
55754;PMS5003;41674;52.290;-1.474;2023-01-26T06:11:58;11;7;
55754;PMS5003;41674;52.290;-1.474;2023-01-26T06:14:28;5;5;
55754;PMS5003;41674;52.290;-1.474;2023-01-26T06:16:57;8;7;
55754;PMS5003;41674;52.290;-1.474;2023-01-26T06:19:27;8;8;
55754;PMS5003;41674;52.290;-1.474;2023-01-26T06:21:57;7;7;
55754;PMS5003;41674;52.290;-1.474;2023-01-26T06:24:26;7;6;
55754;PMS5003;41674;52.290;-1.474;2023-01-26T06:26:56;10;8;
55754;PMS5003;41674;52.290;-1.474;2023-01-26T06:29:26;7;6;
55754;PMS5003;41674;52.290;-1.474;2023-01-26T06:31:55;6;5;
55754;PMS5003;41674;52.290;-1.474;2023-01-26T06:34:25;7;6;
55754;PMS5003;41674;52.290;-1.474;2023-01-26T06:36:54;7;7;
55754;PMS5003;41674;52.290;-1.474;2023-01-26T06:39:24;6;6;
55754;PMS5003;41674;52.290;-1.474;2023-01-26T06:41:54;4;4;
55754;PMS5003;41674;52.290;-1.474;2023-01-26T06:44:24;5;5;
55754;PMS5003;41674;52.290;-1.474;2023-01-26T06:46:53;5;5;
55754;PMS5003;41674;52.290;-1.474;2023-01-26T06:49:23;6;6;
55754;PMS5003;41674;52.290;-1.474;2023-01-26T06:51:57;6;6;
55754;PMS5003;41674;52.290;-1.474;2023-01-26T06:54:23;4;4;
55754;PMS5003;41674;52.290;-1.474;2023-01-26T06:56:52;5;5;
55754;PMS5003;41674;52.290;-1.474;2023-01-26T06:59:22;5;5;
55754;PMS5003;41674;52.290;-1.474;2023-01-26T07:01:52;3;3;
55754;PMS5003;41674;52.290;-1.474;2023-01-26T07:04:24;4;2;
55754;PMS5003;41674;52.290;-1.474;2023-01-26T07:06:51;4;4;
55754;PMS5003;41674;52.290;-1.474;2023-01-26T07:09:21;2;2;
55754;PMS5003;41674;52.290;-1.474;2023-01-26T07:11:51;5;5;
55754;PMS5003;41674;52.290;-1.474;2023-01-26T07:14:20;18;16;
55754;PMS5003;41674;52.290;-1.474;2023-01-26T07:16:50;6;6;
55754;PMS5003;41674;52.290;-1.474;2023-01-26T07:19:20;10;8;
55754;PMS5003;41674;52.290;-1.474;2023-01-26T07:21:49;6;6;
55754;PMS5003;41674;52.290;-1.474;2023-01-26T07:24:18;9;8;
55754;PMS5003;41674;52.290;-1.474;2023-01-26T07:26:48;6;5;
55754;PMS5003;41674;52.290;-1.474;2023-01-26T07:29:18;4;3;
55754;PMS5003;41674;52.290;-1.474;2023-01-26T07:31:48;5;4;
55754;PMS5003;41674;52.290;-1.474;2023-01-26T07:34:17;4;4;
55754;PMS5003;41674;52.290;-1.474;2023-01-26T07:36:47;7;7;
55754;PMS5003;41674;52.290;-1.474;2023-01-26T07:39:16;10;10;
55754;PMS5003;41674;52.290;-1.474;2023-01-26T07:41:47;9;8;
55754;PMS5003;41674;52.290;-1.474;2023-01-26T07:44:16;4;4;
55754;PMS5003;41674;52.290;-1.474;2023-01-26T07:46:45;2;1;
55754;PMS5003;41674;52.290;-1.474;2023-01-26T07:49:15;3;2;
55754;PMS5003;41674;52.290;-1.474;2023-01-26T07:51:45;5;3;
55754;PMS5003;41674;52.290;-1.474;2023-01-26T07:54:15;3;3;
55754;PMS5003;41674;52.290;-1.474;2023-01-26T07:56:45;4;4;
55754;PMS5003;41674;52.290;-1.474;2023-01-26T07:59:14;5;5;
55754;PMS5003;41674;52.290;-1.474;2023-01-26T08:01:44;5;4;
55754;PMS5003;41674;52.290;-1.474;2023-01-26T08:04:14;4;4;
55754;PMS5003;41674;52.290;-1.474;2023-01-26T08:06:44;5;5;
55754;PMS5003;41674;52.290;-1.474;2023-01-26T08:09:13;4;4;
55754;PMS5003;41674;52.290;-1.474;2023-01-26T08:11:43;8;5;
55754;PMS5003;41674;52.290;-1.474;2023-01-26T08:14:12;4;4;
55754;PMS5003;41674;52.290;-1.474;2023-01-26T08:16:42;6;4;
55754;PMS5003;41674;52.290;-1.474;2023-01-26T08:19:12;7;5;
55754;PMS5003;41674;52.290;-1.474;2023-01-26T08:21:41;7;7;
55754;PMS5003;41674;52.290;-1.474;2023-01-26T08:24:11;5;5;
55754;PMS5003;41674;52.290;-1.474;2023-01-26T08:26:41;6;5;
55754;PMS5003;41674;52.290;-1.474;2023-01-26T08:29:11;7;6;
55754;PMS5003;41674;52.290;-1.474;2023-01-26T08:31:40;9;7;
55754;PMS5003;41674;52.290;-1.474;2023-01-26T08:34:10;9;8;
55754;PMS5003;41674;52.290;-1.474;2023-01-26T08:36:40;6;6;
55754;PMS5003;41674;52.290;-1.474;2023-01-26T08:39:09;8;7;
55754;PMS5003;41674;52.290;-1.474;2023-01-26T08:41:39;10;7;
55754;PMS5003;41674;52.290;-1.474;2023-01-26T08:44:09;9;7;
55754;PMS5003;41674;52.290;-1.474;2023-01-26T08:46:38;7;6;
55754;PMS5003;41674;52.290;-1.474;2023-01-26T08:49:08;8;6;
55754;PMS5003;41674;52.290;-1.474;2023-01-26T08:51:38;19;13;
55754;PMS5003;41674;52.290;-1.474;2023-01-26T08:54:08;9;7;
55754;PMS5003;41674;52.290;-1.474;2023-01-26T08:56:37;11;10;
55754;PMS5003;41674;52.290;-1.474;2023-01-26T08:59:07;11;11;
55754;PMS5003;41674;52.290;-1.474;2023-01-26T09:01:37;10;8;
55754;PMS5003;41674;52.290;-1.474;2023-01-26T09:04:06;11;11;
55754;PMS5003;41674;52.290;-1.474;2023-01-26T09:06:36;8;8;
55754;PMS5003;41674;52.290;-1.474;2023-01-26T09:11:35;8;7;
55754;PMS5003;41674;52.290;-1.474;2023-01-26T09:14:05;8;8;
55754;PMS5003;41674;52.290;-1.474;2023-01-26T09:16:35;9;8;
55754;PMS5003;41674;52.290;-1.474;2023-01-26T09:19:05;9;7;
55754;PMS5003;41674;52.290;-1.474;2023-01-26T09:21:34;9;8;
55754;PMS5003;41674;52.290;-1.474;2023-01-26T09:24:04;10;8;
55754;PMS5003;41674;52.290;-1.474;2023-01-26T09:26:33;13;9;
55754;PMS5003;41674;52.290;-1.474;2023-01-26T09:29:02;12;8;
55754;PMS5003;41674;52.290;-1.474;2023-01-26T09:31:32;9;8;
55754;PMS5003;41674;52.290;-1.474;2023-01-26T09:34:01;8;6;
55754;PMS5003;41674;52.290;-1.474;2023-01-26T09:36:31;14;11;
55754;PMS5003;41674;52.290;-1.474;2023-01-26T09:39:01;9;8;
55754;PMS5003;41674;52.290;-1.474;2023-01-26T09:41:36;10;9;
55754;PMS5003;41674;52.290;-1.474;2023-01-26T09:44:02;8;6;
55754;PMS5003;41674;52.290;-1.474;2023-01-26T09:46:31;11;8;
55754;PMS5003;41674;52.290;-1.474;2023-01-26T09:49:03;7;7;
55754;PMS5003;41674;52.290;-1.474;2023-01-26T09:51:31;12;8;
55754;PMS5003;41674;52.290;-1.474;2023-01-26T09:54:00;11;11;
55754;PMS5003;41674;52.290;-1.474;2023-01-26T09:56:30;10;10;
55754;PMS5003;41674;52.290;-1.474;2023-01-26T09:59:00;10;7;
55754;PMS5003;41674;52.290;-1.474;2023-01-26T10:01:30;9;7;
55754;PMS5003;41674;52.290;-1.474;2023-01-26T10:04:00;10;8;
55754;PMS5003;41674;52.290;-1.474;2023-01-26T10:06:28;9;7;
55754;PMS5003;41674;52.290;-1.474;2023-01-26T10:08:59;9;8;
55754;PMS5003;41674;52.290;-1.474;2023-01-26T10:11:27;10;8;
55754;PMS5003;41674;52.290;-1.474;2023-01-26T10:13:57;9;8;
55754;PMS5003;41674;52.290;-1.474;2023-01-26T10:16:26;12;10;
55754;PMS5003;41674;52.290;-1.474;2023-01-26T10:18:57;14;10;
55754;PMS5003;41674;52.290;-1.474;2023-01-26T10:21:27;13;10;
55754;PMS5003;41674;52.290;-1.474;2023-01-26T10:23:55;10;8;
55754;PMS5003;41674;52.290;-1.474;2023-01-26T10:26:26;9;6;
55754;PMS5003;41674;52.290;-1.474;2023-01-26T10:28:54;9;8;
55754;PMS5003;41674;52.290;-1.474;2023-01-26T10:31:24;10;10;
55754;PMS5003;41674;52.290;-1.474;2023-01-26T10:33:55;9;7;
55754;PMS5003;41674;52.290;-1.474;2023-01-26T10:36:22;9;9;
55754;PMS5003;41674;52.290;-1.474;2023-01-26T10:38:52;9;7;
55754;PMS5003;41674;52.290;-1.474;2023-01-26T10:41:23;7;6;
55754;PMS5003;41674;52.290;-1.474;2023-01-26T10:43:52;9;7;
55754;PMS5003;41674;52.290;-1.474;2023-01-26T10:46:27;13;10;
55754;PMS5003;41674;52.290;-1.474;2023-01-26T10:48:51;9;9;
55754;PMS5003;41674;52.290;-1.474;2023-01-26T10:51:22;10;10;
55754;PMS5003;41674;52.290;-1.474;2023-01-26T10:53:50;11;10;
55754;PMS5003;41674;52.290;-1.474;2023-01-26T10:56:20;13;10;
55754;PMS5003;41674;52.290;-1.474;2023-01-26T10:58:51;15;11;
55754;PMS5003;41674;52.290;-1.474;2023-01-26T11:01:19;14;11;
55754;PMS5003;41674;52.290;-1.474;2023-01-26T11:03:58;12;11;
55754;PMS5003;41674;52.290;-1.474;2023-01-26T11:06:18;11;11;
55754;PMS5003;41674;52.290;-1.474;2023-01-26T11:08:48;13;11;
55754;PMS5003;41674;52.290;-1.474;2023-01-26T11:11:22;11;10;
55754;PMS5003;41674;52.290;-1.474;2023-01-26T11:13:47;11;11;
55754;PMS5003;41674;52.290;-1.474;2023-01-26T11:16:19;10;8;
55754;PMS5003;41674;52.290;-1.474;2023-01-26T11:18:51;14;10;
55754;PMS5003;41674;52.290;-1.474;2023-01-26T11:21:16;8;7;
55754;PMS5003;41674;52.290;-1.474;2023-01-26T11:23:47;11;9;
55754;PMS5003;41674;52.290;-1.474;2023-01-26T11:28:46;8;7;
55754;PMS5003;41674;52.290;-1.474;2023-01-26T11:31:15;13;10;
55754;PMS5003;41674;52.290;-1.474;2023-01-26T11:33:45;11;11;
55754;PMS5003;41674;52.290;-1.474;2023-01-26T11:36:15;11;10;
55754;PMS5003;41674;52.290;-1.474;2023-01-26T11:38:43;9;7;
55754;PMS5003;41674;52.290;-1.474;2023-01-26T11:41:16;11;8;
55754;PMS5003;41674;52.290;-1.474;2023-01-26T11:46:17;8;7;
55754;PMS5003;41674;52.290;-1.474;2023-01-26T11:48:43;10;8;
55754;PMS5003;41674;52.290;-1.474;2023-01-26T11:51:13;9;8;
55754;PMS5003;41674;52.290;-1.474;2023-01-26T11:53:46;10;9;
55754;PMS5003;41674;52.290;-1.474;2023-01-26T11:56:14;10;8;
55754;PMS5003;41674;52.290;-1.474;2023-01-26T11:58:41;8;8;
55754;PMS5003;41674;52.290;-1.474;2023-01-26T12:01:11;9;9;
55754;PMS5003;41674;52.290;-1.474;2023-01-26T12:03:41;10;7;
55754;PMS5003;41674;52.290;-1.474;2023-01-26T12:06:13;9;8;
55754;PMS5003;41674;52.290;-1.474;2023-01-26T12:08:39;10;7;
55754;PMS5003;41674;52.290;-1.474;2023-01-26T12:13:39;12;9;
55754;PMS5003;41674;52.290;-1.474;2023-01-26T12:16:12;9;8;
55754;PMS5003;41674;52.290;-1.474;2023-01-26T12:18:39;7;5;
55754;PMS5003;41674;52.290;-1.474;2023-01-26T12:23:40;8;7;
55754;PMS5003;41674;52.290;-1.474;2023-01-26T12:26:06;6;6;
55754;PMS5003;41674;52.290;-1.474;2023-01-26T12:28:36;10;7;
55754;PMS5003;41674;52.290;-1.474;2023-01-26T12:31:07;6;6;
55754;PMS5003;41674;52.290;-1.474;2023-01-26T12:33:35;10;7;
55754;PMS5003;41674;52.290;-1.474;2023-01-26T12:36:11;14;8;
55754;PMS5003;41674;52.290;-1.474;2023-01-26T12:38:38;8;7;
55754;PMS5003;41674;52.290;-1.474;2023-01-26T12:41:08;8;6;
55754;PMS5003;41674;52.290;-1.474;2023-01-26T12:43:37;12;9;
55754;PMS5003;41674;52.290;-1.474;2023-01-26T12:46:03;11;9;
55754;PMS5003;41674;52.290;-1.474;2023-01-26T12:48:35;9;7;
55754;PMS5003;41674;52.290;-1.474;2023-01-26T12:51:03;9;9;
55754;PMS5003;41674;52.290;-1.474;2023-01-26T12:53:32;10;9;
55754;PMS5003;41674;52.290;-1.474;2023-01-26T12:56:05;10;9;
55754;PMS5003;41674;52.290;-1.474;2023-01-26T12:58:32;9;8;
55754;PMS5003;41674;52.290;-1.474;2023-01-26T13:01:01;8;8;
55754;PMS5003;41674;52.290;-1.474;2023-01-26T13:03:30;11;11;
55754;PMS5003;41674;52.290;-1.474;2023-01-26T13:06:00;9;9;
55754;PMS5003;41674;52.290;-1.474;2023-01-26T13:08:38;9;9;
55754;PMS5003;41674;52.290;-1.474;2023-01-26T13:10:59;10;9;
55754;PMS5003;41674;52.290;-1.474;2023-01-26T13:13:29;8;7;
55754;PMS5003;41674;52.290;-1.474;2023-01-26T13:20:57;6;6;
55754;PMS5003;41674;52.290;-1.474;2023-01-26T13:23:38;8;8;
55754;PMS5003;41674;52.290;-1.474;2023-01-26T13:28:26;7;7;
55754;PMS5003;41674;52.290;-1.474;2023-01-26T13:33:25;9;9;
55754;PMS5003;41674;52.290;-1.474;2023-01-26T13:35:55;8;6;
55754;PMS5003;41674;52.290;-1.474;2023-01-26T13:38:27;7;6;
55754;PMS5003;41674;52.290;-1.474;2023-01-26T13:40:55;9;7;
55754;PMS5003;41674;52.290;-1.474;2023-01-26T13:43:27;8;7;
55754;PMS5003;41674;52.290;-1.474;2023-01-26T13:45:57;7;6;
55754;PMS5003;41674;52.290;-1.474;2023-01-26T13:48:27;9;9;
55754;PMS5003;41674;52.290;-1.474;2023-01-26T13:50:53;9;8;
55754;PMS5003;41674;52.290;-1.474;2023-01-26T13:53:27;7;7;
55754;PMS5003;41674;52.290;-1.474;2023-01-26T13:55:53;7;6;
55754;PMS5003;41674;52.290;-1.474;2023-01-26T13:58:22;5;5;
55754;PMS5003;41674;52.290;-1.474;2023-01-26T14:03:21;7;7;
55754;PMS5003;41674;52.290;-1.474;2023-01-26T14:05:51;7;7;
55754;PMS5003;41674;52.290;-1.474;2023-01-26T14:08:20;5;5;
55754;PMS5003;41674;52.290;-1.474;2023-01-26T14:10:50;6;6;
55754;PMS5003;41674;52.290;-1.474;2023-01-26T14:13:21;11;10;
55754;PMS5003;41674;52.290;-1.474;2023-01-26T14:18:19;4;4;
55754;PMS5003;41674;52.290;-1.474;2023-01-26T14:20:47;6;5;
55754;PMS5003;41674;52.290;-1.474;2023-01-26T14:23:17;12;8;
55754;PMS5003;41674;52.290;-1.474;2023-01-26T14:25:47;5;5;
55754;PMS5003;41674;52.290;-1.474;2023-01-26T14:28:18;6;5;
55754;PMS5003;41674;52.290;-1.474;2023-01-26T14:30:49;5;5;
55754;PMS5003;41674;52.290;-1.474;2023-01-26T14:33:20;6;5;
55754;PMS5003;41674;52.290;-1.474;2023-01-26T14:40:45;6;5;
55754;PMS5003;41674;52.290;-1.474;2023-01-26T14:43:14;5;5;
55754;PMS5003;41674;52.290;-1.474;2023-01-26T14:45:44;7;7;
55754;PMS5003;41674;52.290;-1.474;2023-01-26T14:48:14;4;4;
55754;PMS5003;41674;52.290;-1.474;2023-01-26T14:50:43;7;5;
55754;PMS5003;41674;52.290;-1.474;2023-01-26T14:53:15;9;7;
55754;PMS5003;41674;52.290;-1.474;2023-01-26T14:55:43;7;7;
55754;PMS5003;41674;52.290;-1.474;2023-01-26T14:58:13;12;10;
55754;PMS5003;41674;52.290;-1.474;2023-01-26T15:00:41;7;6;
55754;PMS5003;41674;52.290;-1.474;2023-01-26T15:03:11;10;9;
55754;PMS5003;41674;52.290;-1.474;2023-01-26T15:05:40;10;10;
55754;PMS5003;41674;52.290;-1.474;2023-01-26T15:10:40;10;9;
55754;PMS5003;41674;52.290;-1.474;2023-01-26T15:15:40;12;10;
55754;PMS5003;41674;52.290;-1.474;2023-01-26T15:18:16;10;8;
55754;PMS5003;41674;52.290;-1.474;2023-01-26T15:20:39;10;8;
55754;PMS5003;41674;52.290;-1.474;2023-01-26T15:23:19;11;7;
55754;PMS5003;41674;52.290;-1.474;2023-01-26T15:25:37;8;7;
55754;PMS5003;41674;52.290;-1.474;2023-01-26T15:28:11;7;5;
55754;PMS5003;41674;52.290;-1.474;2023-01-26T15:30:37;10;8;
55754;PMS5003;41674;52.290;-1.474;2023-01-26T15:35:36;7;6;
55754;PMS5003;41674;52.290;-1.474;2023-01-26T15:38:08;9;6;
55754;PMS5003;41674;52.290;-1.474;2023-01-26T15:40:35;9;7;
55754;PMS5003;41674;52.290;-1.474;2023-01-26T15:43:09;8;8;
55754;PMS5003;41674;52.290;-1.474;2023-01-26T15:45:35;8;7;
55754;PMS5003;41674;52.290;-1.474;2023-01-26T15:48:04;8;7;
55754;PMS5003;41674;52.290;-1.474;2023-01-26T15:50:34;8;4;
55754;PMS5003;41674;52.290;-1.474;2023-01-26T15:53:03;6;6;
55754;PMS5003;41674;52.290;-1.474;2023-01-26T15:55:33;6;6;
55754;PMS5003;41674;52.290;-1.474;2023-01-26T15:58:03;10;7;
55754;PMS5003;41674;52.290;-1.474;2023-01-26T16:00:32;6;6;
55754;PMS5003;41674;52.290;-1.474;2023-01-26T16:03:02;10;7;
55754;PMS5003;41674;52.290;-1.474;2023-01-26T16:05:31;8;7;
55754;PMS5003;41674;52.290;-1.474;2023-01-26T16:08:01;11;7;
55754;PMS5003;41674;52.290;-1.474;2023-01-26T16:10:31;11;8;
55754;PMS5003;41674;52.290;-1.474;2023-01-26T16:13:00;9;7;
55754;PMS5003;41674;52.290;-1.474;2023-01-26T16:15:32;5;5;
55754;PMS5003;41674;52.290;-1.474;2023-01-26T16:17:59;10;10;
55754;PMS5003;41674;52.290;-1.474;2023-01-26T16:20:29;8;6;
55754;PMS5003;41674;52.290;-1.474;2023-01-26T16:22:59;11;9;
55754;PMS5003;41674;52.290;-1.474;2023-01-26T16:25:29;11;11;
55754;PMS5003;41674;52.290;-1.474;2023-01-26T16:27:58;12;11;
55754;PMS5003;41674;52.290;-1.474;2023-01-26T16:30:28;9;8;
55754;PMS5003;41674;52.290;-1.474;2023-01-26T16:32:58;12;9;
55754;PMS5003;41674;52.290;-1.474;2023-01-26T16:35:27;3;3;
55754;PMS5003;41674;52.290;-1.474;2023-01-26T16:37:57;6;6;
55754;PMS5003;41674;52.290;-1.474;2023-01-26T16:40:27;7;5;
55754;PMS5003;41674;52.290;-1.474;2023-01-26T16:42:56;4;4;
55754;PMS5003;41674;52.290;-1.474;2023-01-26T16:45:26;7;6;
55754;PMS5003;41674;52.290;-1.474;2023-01-26T16:47:56;5;5;
55754;PMS5003;41674;52.290;-1.474;2023-01-26T16:50:25;6;6;
55754;PMS5003;41674;52.290;-1.474;2023-01-26T16:52:55;5;5;
55754;PMS5003;41674;52.290;-1.474;2023-01-26T16:55:25;4;4;
55754;PMS5003;41674;52.290;-1.474;2023-01-26T16:57:54;4;4;
55754;PMS5003;41674;52.290;-1.474;2023-01-26T17:00:24;5;4;
55754;PMS5003;41674;52.290;-1.474;2023-01-26T17:02:53;6;5;
55754;PMS5003;41674;52.290;-1.474;2023-01-26T17:05:23;6;5;
55754;PMS5003;41674;52.290;-1.474;2023-01-26T17:07:53;6;4;
55754;PMS5003;41674;52.290;-1.474;2023-01-26T17:10:22;4;4;
55754;PMS5003;41674;52.290;-1.474;2023-01-26T17:12:52;5;5;
55754;PMS5003;41674;52.290;-1.474;2023-01-26T17:15:22;5;5;
55754;PMS5003;41674;52.290;-1.474;2023-01-26T17:17:51;3;3;
55754;PMS5003;41674;52.290;-1.474;2023-01-26T17:20:21;5;4;
55754;PMS5003;41674;52.290;-1.474;2023-01-26T17:22:51;7;5;